sensor_id;sensor_type;location;lat;lon;timestamp;pressure;altitude;pressure_sealevel;temperature;humidity
79198;BME280;68628;48.714;9.472;2023-04-08T00:01:13;98296.47;;;7.65;83.57
79198;BME280;68628;48.714;9.472;2023-04-08T00:03:38;98295.09;;;7.79;83.40
79198;BME280;68628;48.714;9.472;2023-04-08T00:06:04;98301.88;;;7.90;82.99
79198;BME280;68628;48.714;9.472;2023-04-08T00:08:30;98298.88;;;7.85;82.98
79198;BME280;68628;48.714;9.472;2023-04-08T00:10:56;98297.59;;;7.89;82.98
79198;BME280;68628;48.714;9.472;2023-04-08T00:13:22;98294.28;;;7.87;83.08
79198;BME280;68628;48.714;9.472;2023-04-08T00:15:47;98293.59;;;7.77;82.87
79198;BME280;68628;48.714;9.472;2023-04-08T00:18:13;98300.06;;;7.64;83.60
79198;BME280;68628;48.714;9.472;2023-04-08T00:20:41;98290.91;;;7.68;83.38
79198;BME280;68628;48.714;9.472;2023-04-08T00:23:08;98299.28;;;7.72;83.55
79198;BME280;68628;48.714;9.472;2023-04-08T00:25:33;98297.03;;;7.77;82.73
79198;BME280;68628;48.714;9.472;2023-04-08T00:27:59;98299.78;;;7.67;83.12
79198;BME280;68628;48.714;9.472;2023-04-08T00:30:25;98300.41;;;7.70;82.91
79198;BME280;68628;48.714;9.472;2023-04-08T00:32:52;98306.78;;;7.67;83.82
79198;BME280;68628;48.714;9.472;2023-04-08T00:35:18;98309.97;;;7.79;83.26
79198;BME280;68628;48.714;9.472;2023-04-08T00:37:44;98303.75;;;7.54;84.51
79198;BME280;68628;48.714;9.472;2023-04-08T00:40:10;98307.34;;;7.53;85.21
79198;BME280;68628;48.714;9.472;2023-04-08T00:42:38;98308.63;;;7.48;84.61
79198;BME280;68628;48.714;9.472;2023-04-08T00:45:04;98305.78;;;7.60;83.60
79198;BME280;68628;48.714;9.472;2023-04-08T00:47:30;98304.66;;;7.62;83.51
79198;BME280;68628;48.714;9.472;2023-04-08T00:49:56;98306.22;;;7.55;84.50
79198;BME280;68628;48.714;9.472;2023-04-08T00:52:22;98313.44;;;7.53;84.32
79198;BME280;68628;48.714;9.472;2023-04-08T00:54:48;98317.56;;;7.56;84.09
79198;BME280;68628;48.714;9.472;2023-04-08T00:57:13;98316.34;;;7.50;84.07
79198;BME280;68628;48.714;9.472;2023-04-08T00:59:40;98319.22;;;7.39;84.45
79198;BME280;68628;48.714;9.472;2023-04-08T01:05:15;98310.69;;;7.37;84.67
79198;BME280;68628;48.714;9.472;2023-04-08T01:07:52;98307.66;;;7.49;84.67
79198;BME280;68628;48.714;9.472;2023-04-08T01:10:21;98309.72;;;7.38;84.74
79198;BME280;68628;48.714;9.472;2023-04-08T01:12:55;98306.84;;;7.49;84.76
79198;BME280;68628;48.714;9.472;2023-04-08T01:15:25;98317.91;;;7.61;84.37
79198;BME280;68628;48.714;9.472;2023-04-08T01:17:55;98315.44;;;7.59;84.15
79198;BME280;68628;48.714;9.472;2023-04-08T01:20:24;98314.09;;;7.55;84.29
79198;BME280;68628;48.714;9.472;2023-04-08T01:25:33;98316.44;;;7.40;85.53
79198;BME280;68628;48.714;9.472;2023-04-08T01:28:12;98320.34;;;7.54;85.10
79198;BME280;68628;48.714;9.472;2023-04-08T01:30:41;98312.00;;;7.41;85.10
79198;BME280;68628;48.714;9.472;2023-04-08T01:33:12;98313.56;;;7.25;85.68
79198;BME280;68628;48.714;9.472;2023-04-08T01:35:40;98312.00;;;7.41;84.90
79198;BME280;68628;48.714;9.472;2023-04-08T01:38:08;98310.44;;;7.48;84.74
79198;BME280;68628;48.714;9.472;2023-04-08T01:40:39;98313.97;;;7.39;85.02
79198;BME280;68628;48.714;9.472;2023-04-08T01:43:09;98313.81;;;7.40;84.71
79198;BME280;68628;48.714;9.472;2023-04-08T01:45:39;98310.97;;;7.52;84.16
79198;BME280;68628;48.714;9.472;2023-04-08T01:48:06;98311.41;;;7.47;84.46
79198;BME280;68628;48.714;9.472;2023-04-08T01:50:33;98308.69;;;7.30;84.66
79198;BME280;68628;48.714;9.472;2023-04-08T01:53:01;98312.00;;;7.41;84.01
79198;BME280;68628;48.714;9.472;2023-04-08T01:55:30;98308.13;;;7.45;84.31
79198;BME280;68628;48.714;9.472;2023-04-08T01:57:59;98305.44;;;7.37;84.46
79198;BME280;68628;48.714;9.472;2023-04-08T02:00:29;98309.56;;;7.39;84.02
79198;BME280;68628;48.714;9.472;2023-04-08T02:02:57;98304.03;;;7.42;83.74
79198;BME280;68628;48.714;9.472;2023-04-08T02:05:24;98306.84;;;7.49;82.88
79198;BME280;68628;48.714;9.472;2023-04-08T02:07:50;98311.88;;;7.42;83.21
79198;BME280;68628;48.714;9.472;2023-04-08T02:10:16;98313.19;;;7.20;84.38
79198;BME280;68628;48.714;9.472;2023-04-08T02:12:43;98305.91;;;7.32;83.87
79198;BME280;68628;48.714;9.472;2023-04-08T02:15:11;98309.50;;;7.31;83.98
79198;BME280;68628;48.714;9.472;2023-04-08T02:17:49;98301.84;;;7.20;83.93
79198;BME280;68628;48.714;9.472;2023-04-08T02:20:37;98303.97;;;7.16;84.14
79198;BME280;68628;48.714;9.472;2023-04-08T02:23:09;98314.53;;;7.24;83.81
79198;BME280;68628;48.714;9.472;2023-04-08T02:25:43;98318.63;;;7.09;84.55
79198;BME280;68628;48.714;9.472;2023-04-08T02:28:11;98316.19;;;7.25;83.66
79198;BME280;68628;48.714;9.472;2023-04-08T02:30:42;98308.97;;;7.27;83.59
79198;BME280;68628;48.714;9.472;2023-04-08T02:33:14;98319.97;;;7.13;83.56
79198;BME280;68628;48.714;9.472;2023-04-08T02:35:44;98317.44;;;7.21;83.29
79198;BME280;68628;48.714;9.472;2023-04-08T02:38:10;98320.44;;;7.08;84.21
79198;BME280;68628;48.714;9.472;2023-04-08T02:40:37;98317.94;;;7.25;82.74
79198;BME280;68628;48.714;9.472;2023-04-08T02:43:02;98325.16;;;7.23;83.87
79198;BME280;68628;48.714;9.472;2023-04-08T02:45:37;98327.03;;;7.12;84.19
79198;BME280;68628;48.714;9.472;2023-04-08T02:48:06;98327.34;;;7.09;84.20
79198;BME280;68628;48.714;9.472;2023-04-08T02:50:32;98325.22;;;7.13;83.78
79198;BME280;68628;48.714;9.472;2023-04-08T02:52:57;98320.81;;;7.13;84.23
79198;BME280;68628;48.714;9.472;2023-04-08T02:55:23;98321.56;;;7.06;85.09
79198;BME280;68628;48.714;9.472;2023-04-08T02:57:49;98316.47;;;7.22;83.57
79198;BME280;68628;48.714;9.472;2023-04-08T03:00:15;98316.53;;;7.12;83.87
79198;BME280;68628;48.714;9.472;2023-04-08T03:02:43;98317.34;;;7.13;83.52
79198;BME280;68628;48.714;9.472;2023-04-08T03:05:11;98315.59;;;7.13;84.53
79198;BME280;68628;48.714;9.472;2023-04-08T03:07:37;98321.84;;;7.39;82.65
79198;BME280;68628;48.714;9.472;2023-04-08T03:10:03;98323.13;;;7.34;82.42
79198;BME280;68628;48.714;9.472;2023-04-08T03:12:29;98327.09;;;7.21;83.10
79198;BME280;68628;48.714;9.472;2023-04-08T03:14:57;98326.81;;;7.24;83.37
79198;BME280;68628;48.714;9.472;2023-04-08T03:17:23;98326.88;;;7.14;83.65
79198;BME280;68628;48.714;9.472;2023-04-08T03:19:48;98328.47;;;7.07;83.75
79198;BME280;68628;48.714;9.472;2023-04-08T03:22:14;98326.22;;;7.12;83.21
79198;BME280;68628;48.714;9.472;2023-04-08T03:24:40;98323.66;;;7.20;83.74
79198;BME280;68628;48.714;9.472;2023-04-08T03:27:06;98325.84;;;7.07;83.69
79198;BME280;68628;48.714;9.472;2023-04-08T03:29:32;98324.69;;;7.45;82.87
79198;BME280;68628;48.714;9.472;2023-04-08T03:31:58;98330.41;;;7.23;83.52
79198;BME280;68628;48.714;9.472;2023-04-08T03:34:24;98333.09;;;7.13;83.54
79198;BME280;68628;48.714;9.472;2023-04-08T03:36:52;98331.84;;;7.17;83.99
79198;BME280;68628;48.714;9.472;2023-04-08T03:39:18;98330.25;;;7.06;83.87
79198;BME280;68628;48.714;9.472;2023-04-08T03:41:44;98330.78;;;7.10;84.03
79198;BME280;68628;48.714;9.472;2023-04-08T03:44:10;98335.31;;;7.08;84.54
79198;BME280;68628;48.714;9.472;2023-04-08T03:46:35;98328.38;;;7.16;83.85
79198;BME280;68628;48.714;9.472;2023-04-08T03:49:01;98332.56;;;7.27;83.79
79198;BME280;68628;48.714;9.472;2023-04-08T03:51:27;98325.97;;;7.23;82.97
79198;BME280;68628;48.714;9.472;2023-04-08T03:53:52;98320.34;;;7.18;83.71
79198;BME280;68628;48.714;9.472;2023-04-08T03:56:18;98315.84;;;7.28;83.12
79198;BME280;68628;48.714;9.472;2023-04-08T03:58:44;98323.97;;;7.17;82.93
79198;BME280;68628;48.714;9.472;2023-04-08T04:01:09;98315.44;;;7.15;82.69
79198;BME280;68628;48.714;9.472;2023-04-08T04:03:35;98322.91;;;7.10;82.79
79198;BME280;68628;48.714;9.472;2023-04-08T04:06:01;98321.19;;;7.19;82.16
79198;BME280;68628;48.714;9.472;2023-04-08T04:08:29;98321.84;;;7.21;82.26
79198;BME280;68628;48.714;9.472;2023-04-08T04:10:55;98315.44;;;7.15;82.38
79198;BME280;68628;48.714;9.472;2023-04-08T04:13:22;98320.97;;;7.12;82.26
79198;BME280;68628;48.714;9.472;2023-04-08T04:15:50;98332.59;;;7.09;82.55
79198;BME280;68628;48.714;9.472;2023-04-08T04:18:16;98327.78;;;7.05;82.69
79198;BME280;68628;48.714;9.472;2023-04-08T04:20:42;98326.13;;;7.04;82.91
79198;BME280;68628;48.714;9.472;2023-04-08T04:23:08;98327.25;;;7.01;82.27
79198;BME280;68628;48.714;9.472;2023-04-08T04:25:34;98325.50;;;6.92;82.73
79198;BME280;68628;48.714;9.472;2023-04-08T04:28:00;98325.16;;;6.87;82.92
79198;BME280;68628;48.714;9.472;2023-04-08T04:30:27;98327.53;;;6.80;82.71
79198;BME280;68628;48.714;9.472;2023-04-08T04:32:52;98326.03;;;6.77;83.17
79198;BME280;68628;48.714;9.472;2023-04-08T04:35:18;98324.63;;;6.83;81.99
79198;BME280;68628;48.714;9.472;2023-04-08T04:37:44;98330.44;;;6.77;82.99
79198;BME280;68628;48.714;9.472;2023-04-08T04:40:10;98332.09;;;6.78;82.95
79198;BME280;68628;48.714;9.472;2023-04-08T04:42:35;98330.22;;;6.70;83.63
79198;BME280;68628;48.714;9.472;2023-04-08T04:45:01;98336.00;;;6.74;82.93
79198;BME280;68628;48.714;9.472;2023-04-08T04:47:27;98336.56;;;6.67;83.30
79198;BME280;68628;48.714;9.472;2023-04-08T04:49:52;98338.88;;;6.71;83.89
79198;BME280;68628;48.714;9.472;2023-04-08T04:52:18;98331.03;;;6.71;83.19
79198;BME280;68628;48.714;9.472;2023-04-08T04:54:44;98336.38;;;6.79;82.50
79198;BME280;68628;48.714;9.472;2023-04-08T04:57:10;98343.00;;;6.73;83.46
79198;BME280;68628;48.714;9.472;2023-04-08T04:59:36;98347.81;;;6.78;82.90
79198;BME280;68628;48.714;9.472;2023-04-08T05:02:01;98347.81;;;6.78;83.26
79198;BME280;68628;48.714;9.472;2023-04-08T05:04:27;98357.75;;;6.74;83.27
79198;BME280;68628;48.714;9.472;2023-04-08T05:06:53;98355.81;;;6.76;83.13
79198;BME280;68628;48.714;9.472;2023-04-08T05:09:19;98365.03;;;6.80;83.83
79198;BME280;68628;48.714;9.472;2023-04-08T05:11:45;98361.06;;;6.76;83.25
79198;BME280;68628;48.714;9.472;2023-04-08T05:14:10;98365.22;;;6.69;83.34
79198;BME280;68628;48.714;9.472;2023-04-08T05:16:36;98360.34;;;6.56;83.08
79198;BME280;68628;48.714;9.472;2023-04-08T05:19:02;98363.44;;;6.70;82.33
79198;BME280;68628;48.714;9.472;2023-04-08T05:21:28;98360.91;;;6.78;83.40
79198;BME280;68628;48.714;9.472;2023-04-08T05:23:54;98364.81;;;6.92;82.74
79198;BME280;68628;48.714;9.472;2023-04-08T05:26:20;98371.16;;;6.89;83.09
79198;BME280;68628;48.714;9.472;2023-04-08T05:28:50;98373.66;;;6.91;82.90
79198;BME280;68628;48.714;9.472;2023-04-08T05:31:17;98379.34;;;6.86;83.22
79198;BME280;68628;48.714;9.472;2023-04-08T05:33:44;98381.41;;;6.82;83.31
79198;BME280;68628;48.714;9.472;2023-04-08T05:36:10;98379.25;;;6.78;82.99
79198;BME280;68628;48.714;9.472;2023-04-08T05:38:37;98376.41;;;6.89;82.25
79198;BME280;68628;48.714;9.472;2023-04-08T05:41:03;98374.09;;;6.86;82.65
79198;BME280;68628;48.714;9.472;2023-04-08T05:43:32;98375.75;;;6.87;83.56
79198;BME280;68628;48.714;9.472;2023-04-08T05:45:57;98377.69;;;6.85;83.64
79198;BME280;68628;48.714;9.472;2023-04-08T05:48:23;98386.94;;;6.79;84.04
79198;BME280;68628;48.714;9.472;2023-04-08T05:50:49;98386.09;;;7.07;83.06
79198;BME280;68628;48.714;9.472;2023-04-08T05:53:15;98384.31;;;7.25;82.17
79198;BME280;68628;48.714;9.472;2023-04-08T05:55:40;98388.88;;;7.05;82.71
79198;BME280;68628;48.714;9.472;2023-04-08T05:58:06;98391.34;;;7.07;83.54
79198;BME280;68628;48.714;9.472;2023-04-08T06:00:32;98395.75;;;7.06;84.03
79198;BME280;68628;48.714;9.472;2023-04-08T06:02:58;98395.75;;;7.06;83.09
79198;BME280;68628;48.714;9.472;2023-04-08T06:05:24;98398.47;;;7.32;80.84
79198;BME280;68628;48.714;9.472;2023-04-08T06:07:50;98403.66;;;7.42;80.80
79198;BME280;68628;48.714;9.472;2023-04-08T06:10:16;98414.72;;;7.36;81.70
79198;BME280;68628;48.714;9.472;2023-04-08T06:12:42;98410.44;;;7.35;81.29
79198;BME280;68628;48.714;9.472;2023-04-08T06:15:08;98415.25;;;7.22;82.35
79198;BME280;68628;48.714;9.472;2023-04-08T06:17:38;98412.59;;;7.04;81.50
79198;BME280;68628;48.714;9.472;2023-04-08T06:20:05;98409.47;;;7.18;81.07
79198;BME280;68628;48.714;9.472;2023-04-08T06:22:31;98416.34;;;7.19;81.23
79198;BME280;68628;48.714;9.472;2023-04-08T06:24:57;98423.88;;;7.32;79.65
79198;BME280;68628;48.714;9.472;2023-04-08T06:27:22;98416.44;;;7.27;81.13
79198;BME280;68628;48.714;9.472;2023-04-08T06:29:48;98417.34;;;7.36;80.69
79198;BME280;68628;48.714;9.472;2023-04-08T06:32:14;98423.78;;;7.24;80.03
79198;BME280;68628;48.714;9.472;2023-04-08T06:34:40;98421.53;;;7.29;80.01
79198;BME280;68628;48.714;9.472;2023-04-08T06:37:06;98422.72;;;7.53;79.35
79198;BME280;68628;48.714;9.472;2023-04-08T06:39:32;98419.75;;;7.29;79.77
79198;BME280;68628;48.714;9.472;2023-04-08T06:41:58;98428.72;;;7.27;80.52
79198;BME280;68628;48.714;9.472;2023-04-08T06:44:23;98424.44;;;7.26;80.17
79198;BME280;68628;48.714;9.472;2023-04-08T06:46:49;98432.50;;;7.42;80.61
79198;BME280;68628;48.714;9.472;2023-04-08T06:49:15;98437.06;;;7.58;78.90
79198;BME280;68628;48.714;9.472;2023-04-08T06:51:41;98444.63;;;7.61;78.93
79198;BME280;68628;48.714;9.472;2023-04-08T06:54:06;98438.31;;;7.72;79.06
79198;BME280;68628;48.714;9.472;2023-04-08T06:56:34;98432.78;;;7.57;79.74
79198;BME280;68628;48.714;9.472;2023-04-08T06:59:01;98435.69;;;7.36;79.34
79198;BME280;68628;48.714;9.472;2023-04-08T07:01:29;98439.16;;;7.55;79.37
79198;BME280;68628;48.714;9.472;2023-04-08T07:03:56;98443.34;;;7.65;78.96
79198;BME280;68628;48.714;9.472;2023-04-08T07:06:22;98439.31;;;7.97;78.14
79198;BME280;68628;48.714;9.472;2023-04-08T07:08:48;98443.41;;;7.92;77.41
79198;BME280;68628;48.714;9.472;2023-04-08T07:11:14;98454.47;;;8.04;77.31
79198;BME280;68628;48.714;9.472;2023-04-08T07:13:40;98446.69;;;7.94;76.53
79198;BME280;68628;48.714;9.472;2023-04-08T07:16:05;98449.97;;;7.96;78.08
79198;BME280;68628;48.714;9.472;2023-04-08T07:18:31;98440.97;;;7.54;78.78
79198;BME280;68628;48.714;9.472;2023-04-08T07:20:57;98440.88;;;7.82;78.69
79198;BME280;68628;48.714;9.472;2023-04-08T07:23:25;98443.00;;;8.05;78.24
79198;BME280;68628;48.714;9.472;2023-04-08T07:25:51;98449.22;;;8.04;77.69
79198;BME280;68628;48.714;9.472;2023-04-08T07:28:19;98442.16;;;8.30;77.44
79198;BME280;68628;48.714;9.472;2023-04-08T07:30:45;98451.41;;;8.61;75.37
79198;BME280;68628;48.714;9.472;2023-04-08T07:33:11;98452.03;;;8.89;74.47
79198;BME280;68628;48.714;9.472;2023-04-08T07:35:37;98451.28;;;9.13;74.35
79198;BME280;68628;48.714;9.472;2023-04-08T07:38:03;98458.84;;;9.08;73.03
79198;BME280;68628;48.714;9.472;2023-04-08T07:40:29;98465.56;;;9.11;73.20
79198;BME280;68628;48.714;9.472;2023-04-08T07:42:55;98468.56;;;9.16;72.51
79198;BME280;68628;48.714;9.472;2023-04-08T07:45:21;98476.13;;;9.27;73.68
79198;BME280;68628;48.714;9.472;2023-04-08T07:47:46;98461.44;;;9.59;71.13
79198;BME280;68628;48.714;9.472;2023-04-08T07:50:12;98462.06;;;9.61;71.10
79198;BME280;68628;48.714;9.472;2023-04-08T07:52:38;98459.03;;;9.23;71.55
79198;BME280;68628;48.714;9.472;2023-04-08T07:55:04;98466.44;;;9.20;72.16
79198;BME280;68628;48.714;9.472;2023-04-08T07:57:31;98459.56;;;9.35;71.09
79198;BME280;68628;48.714;9.472;2023-04-08T07:59:57;98466.47;;;9.36;70.54
79198;BME280;68628;48.714;9.472;2023-04-08T08:02:23;98469.63;;;9.48;70.97
79198;BME280;68628;48.714;9.472;2023-04-08T08:04:48;98464.00;;;9.34;71.08
79198;BME280;68628;48.714;9.472;2023-04-08T08:07:14;98464.34;;;9.40;71.71
79198;BME280;68628;48.714;9.472;2023-04-08T08:09:40;98466.13;;;9.39;71.01
79198;BME280;68628;48.714;9.472;2023-04-08T08:12:06;98473.91;;;9.57;70.51
79198;BME280;68628;48.714;9.472;2023-04-08T08:14:31;98474.25;;;9.54;70.50
79198;BME280;68628;48.714;9.472;2023-04-08T08:16:57;98475.06;;;9.63;69.94
79198;BME280;68628;48.714;9.472;2023-04-08T08:19:23;98481.34;;;9.70;69.87
79198;BME280;68628;48.714;9.472;2023-04-08T08:21:48;98478.22;;;9.83;70.32
79198;BME280;68628;48.714;9.472;2023-04-08T08:24:15;98489.41;;;9.93;68.66
79198;BME280;68628;48.714;9.472;2023-04-08T08:26:41;98485.78;;;10.03;69.22
79198;BME280;68628;48.714;9.472;2023-04-08T08:29:09;98489.41;;;10.10;68.10
79198;BME280;68628;48.714;9.472;2023-04-08T08:31:35;98479.72;;;9.86;68.61
79198;BME280;68628;48.714;9.472;2023-04-08T08:34:00;98482.50;;;10.00;68.66
79198;BME280;68628;48.714;9.472;2023-04-08T08:36:26;98481.16;;;10.54;64.80
79198;BME280;68628;48.714;9.472;2023-04-08T08:38:52;98482.28;;;10.68;67.10
79198;BME280;68628;48.714;9.472;2023-04-08T08:41:19;98473.38;;;11.40;63.21
79198;BME280;68628;48.714;9.472;2023-04-08T08:43:46;98481.34;;;12.10;62.41
79198;BME280;68628;48.714;9.472;2023-04-08T08:46:15;98487.00;;;12.90;58.13
79198;BME280;68628;48.714;9.472;2023-04-08T08:48:43;98497.56;;;12.90;56.94
79198;BME280;68628;48.714;9.472;2023-04-08T08:51:11;98490.91;;;13.09;55.18
79198;BME280;68628;48.714;9.472;2023-04-08T08:53:38;98486.31;;;13.32;52.72
79198;BME280;68628;48.714;9.472;2023-04-08T08:56:07;98491.75;;;12.79;54.93
79198;BME280;68628;48.714;9.472;2023-04-08T08:58:34;98490.63;;;13.04;55.48
79198;BME280;68628;48.714;9.472;2023-04-08T09:00:59;98494.03;;;12.82;55.22
79198;BME280;68628;48.714;9.472;2023-04-08T09:03:27;98498.31;;;12.83;56.73
79198;BME280;68628;48.714;9.472;2023-04-08T09:05:55;98495.63;;;13.28;56.24
79198;BME280;68628;48.714;9.472;2023-04-08T09:08:36;98494.13;;;13.56;54.61
79198;BME280;68628;48.714;9.472;2023-04-08T09:11:16;98493.22;;;12.82;53.32
79198;BME280;68628;48.714;9.472;2023-04-08T09:13:45;98501.84;;;13.06;53.48
79198;BME280;68628;48.714;9.472;2023-04-08T09:16:13;98500.19;;;13.71;52.69
79198;BME280;68628;48.714;9.472;2023-04-08T09:18:43;98507.00;;;13.80;52.04
79198;BME280;68628;48.714;9.472;2023-04-08T09:21:14;98504.25;;;14.10;51.85
79198;BME280;68628;48.714;9.472;2023-04-08T09:23:51;98504.03;;;13.69;51.11
79198;BME280;68628;48.714;9.472;2023-04-08T09:26:17;98500.81;;;14.38;49.78
79198;BME280;68628;48.714;9.472;2023-04-08T09:29:08;98503.28;;;13.75;48.43
79198;BME280;68628;48.714;9.472;2023-04-08T09:31:36;98503.41;;;14.10;50.66
79198;BME280;68628;48.714;9.472;2023-04-08T09:34:14;98495.44;;;14.31;46.63
79198;BME280;68628;48.714;9.472;2023-04-08T09:36:44;98499.34;;;14.36;47.08
79198;BME280;68628;48.714;9.472;2023-04-08T09:39:10;98495.78;;;14.50;47.04
79198;BME280;68628;48.714;9.472;2023-04-08T09:41:37;98501.22;;;13.92;49.58
79198;BME280;68628;48.714;9.472;2023-04-08T09:44:10;98498.44;;;14.78;48.57
79198;BME280;68628;48.714;9.472;2023-04-08T09:47:01;98488.91;;;15.39;45.58
79198;BME280;68628;48.714;9.472;2023-04-08T09:49:56;98489.16;;;15.03;47.77
79198;BME280;68628;48.714;9.472;2023-04-08T09:52:33;98492.03;;;15.56;44.52
79198;BME280;68628;48.714;9.472;2023-04-08T09:55:12;98491.31;;;16.23;43.95
79198;BME280;68628;48.714;9.472;2023-04-08T09:57:58;98480.41;;;15.71;42.44
79198;BME280;68628;48.714;9.472;2023-04-08T10:00:40;98484.00;;;14.31;47.38
79198;BME280;68628;48.714;9.472;2023-04-08T10:05:52;98495.78;;;13.78;48.45
79198;BME280;68628;48.714;9.472;2023-04-08T10:08:19;98486.06;;;13.27;50.36
79198;BME280;68628;48.714;9.472;2023-04-08T10:10:46;98480.94;;;13.26;48.56
79198;BME280;68628;48.714;9.472;2023-04-08T10:13:12;98488.53;;;13.87;46.92
79198;BME280;68628;48.714;9.472;2023-04-08T10:15:39;98489.50;;;13.28;46.92
79198;BME280;68628;48.714;9.472;2023-04-08T10:23:18;98490.25;;;13.22;48.89
79198;BME280;68628;48.714;9.472;2023-04-08T10:25:48;98495.56;;;12.92;49.32
79198;BME280;68628;48.714;9.472;2023-04-08T10:30:49;98487.91;;;12.52;52.21
79198;BME280;68628;48.714;9.472;2023-04-08T10:33:33;98491.50;;;11.98;52.70
79198;BME280;68628;48.714;9.472;2023-04-08T10:36:10;98496.69;;;11.60;54.18
79198;BME280;68628;48.714;9.472;2023-04-08T10:38:41;98489.63;;;11.60;54.87
79198;BME280;68628;48.714;9.472;2023-04-08T10:41:11;98492.13;;;11.54;55.68
79198;BME280;68628;48.714;9.472;2023-04-08T10:43:46;98493.53;;;11.64;54.42
79198;BME280;68628;48.714;9.472;2023-04-08T10:46:12;98502.53;;;11.47;55.95
79198;BME280;68628;48.714;9.472;2023-04-08T10:48:37;98496.28;;;11.94;55.09
79198;BME280;68628;48.714;9.472;2023-04-08T10:51:04;98502.13;;;11.90;54.89
79198;BME280;68628;48.714;9.472;2023-04-08T10:53:36;98496.59;;;11.76;55.67
79198;BME280;68628;48.714;9.472;2023-04-08T10:56:13;98503.81;;;11.59;54.84
79198;BME280;68628;48.714;9.472;2023-04-08T10:58:54;98498.03;;;11.56;56.17
79198;BME280;68628;48.714;9.472;2023-04-08T11:01:21;98504.19;;;11.48;55.50
79198;BME280;68628;48.714;9.472;2023-04-08T11:03:48;98500.09;;;11.06;55.66
79198;BME280;68628;48.714;9.472;2023-04-08T11:06:14;98505.38;;;11.14;56.34
79198;BME280;68628;48.714;9.472;2023-04-08T11:08:40;98496.56;;;11.22;56.70
79198;BME280;68628;48.714;9.472;2023-04-08T11:11:07;98485.44;;;11.11;55.69
79198;BME280;68628;48.714;9.472;2023-04-08T11:13:40;98489.13;;;11.25;56.38
79198;BME280;68628;48.714;9.472;2023-04-08T11:16:09;98495.13;;;11.74;55.68
79198;BME280;68628;48.714;9.472;2023-04-08T11:18:39;98497.75;;;11.50;55.05
79198;BME280;68628;48.714;9.472;2023-04-08T11:21:12;98495.16;;;11.65;54.47
79198;BME280;68628;48.714;9.472;2023-04-08T11:23:37;98497.44;;;11.45;54.58
79198;BME280;68628;48.714;9.472;2023-04-08T11:26:03;98490.91;;;11.33;53.59
79198;BME280;68628;48.714;9.472;2023-04-08T11:28:33;98499.44;;;11.66;53.60
79198;BME280;68628;48.714;9.472;2023-04-08T11:31:00;98483.59;;;11.12;53.23
79198;BME280;68628;48.714;9.472;2023-04-08T11:33:32;98485.97;;;11.61;53.20
79198;BME280;68628;48.714;9.472;2023-04-08T11:36:01;98497.00;;;11.65;51.60
79198;BME280;68628;48.714;9.472;2023-04-08T11:38:30;98498.03;;;11.56;51.59
79198;BME280;68628;48.714;9.472;2023-04-08T11:40:58;98491.97;;;11.55;51.72
79198;BME280;68628;48.714;9.472;2023-04-08T11:43:24;98490.19;;;11.71;50.39
79198;BME280;68628;48.714;9.472;2023-04-08T11:45:51;98504.22;;;11.71;51.88
79198;BME280;68628;48.714;9.472;2023-04-08T11:48:17;98487.53;;;11.71;49.18
79198;BME280;68628;48.714;9.472;2023-04-08T11:50:44;98488.44;;;11.63;48.36
79198;BME280;68628;48.714;9.472;2023-04-08T11:53:24;98493.81;;;11.46;49.91
79198;BME280;68628;48.714;9.472;2023-04-08T11:55:50;98485.53;;;11.49;48.69
79198;BME280;68628;48.714;9.472;2023-04-08T11:58:17;98480.06;;;11.28;48.14
79198;BME280;68628;48.714;9.472;2023-04-08T12:00:43;98491.09;;;11.63;48.13
79198;BME280;68628;48.714;9.472;2023-04-08T12:03:10;98484.72;;;11.17;47.35
79198;BME280;68628;48.714;9.472;2023-04-08T12:05:37;98490.88;;;11.41;47.92
79198;BME280;68628;48.714;9.472;2023-04-08T12:08:02;98493.56;;;11.56;47.06
79198;BME280;68628;48.714;9.472;2023-04-08T12:10:28;98492.75;;;11.24;47.99
79198;BME280;68628;48.714;9.472;2023-04-08T12:12:54;98491.28;;;11.22;46.77
79198;BME280;68628;48.714;9.472;2023-04-08T12:15:20;98504.22;;;11.71;48.27
79198;BME280;68628;48.714;9.472;2023-04-08T12:17:45;98510.97;;;11.74;46.61
79198;BME280;68628;48.714;9.472;2023-04-08T12:20:12;98502.97;;;12.13;46.02
79198;BME280;68628;48.714;9.472;2023-04-08T12:22:38;98503.91;;;11.89;46.55
79198;BME280;68628;48.714;9.472;2023-04-08T12:25:05;98507.28;;;12.06;45.20
79198;BME280;68628;48.714;9.472;2023-04-08T12:27:31;98511.00;;;11.65;45.68
79198;BME280;68628;48.714;9.472;2023-04-08T12:30:01;98506.94;;;11.55;45.20
79198;BME280;68628;48.714;9.472;2023-04-08T12:32:28;98506.81;;;11.79;45.40
79198;BME280;68628;48.714;9.472;2023-04-08T12:34:54;98509.34;;;11.96;43.22
79198;BME280;68628;48.714;9.472;2023-04-08T12:37:20;98508.69;;;12.17;43.47
79198;BME280;68628;48.714;9.472;2023-04-08T12:39:46;98504.84;;;11.73;42.85
79198;BME280;68628;48.714;9.472;2023-04-08T12:42:12;98508.75;;;12.09;43.25
79198;BME280;68628;48.714;9.472;2023-04-08T12:44:38;98513.63;;;12.20;43.44
79198;BME280;68628;48.714;9.472;2023-04-08T12:47:04;98510.13;;;12.05;43.75
79198;BME280;68628;48.714;9.472;2023-04-08T12:49:29;98508.22;;;11.67;44.79
79198;BME280;68628;48.714;9.472;2023-04-08T12:51:55;98503.44;;;11.31;46.16
79198;BME280;68628;48.714;9.472;2023-04-08T12:54:21;98501.16;;;11.28;45.76
79198;BME280;68628;48.714;9.472;2023-04-08T12:56:46;98504.22;;;11.40;44.78
79198;BME280;68628;48.714;9.472;2023-04-08T12:59:13;98514.25;;;11.53;47.38
79198;BME280;68628;48.714;9.472;2023-04-08T13:01:39;98511.78;;;11.51;45.41
79198;BME280;68628;48.714;9.472;2023-04-08T13:04:05;98501.41;;;11.10;47.66
79198;BME280;68628;48.714;9.472;2023-04-08T13:06:31;98514.72;;;11.16;46.69
79198;BME280;68628;48.714;9.472;2023-04-08T13:08:56;98508.53;;;11.41;47.02
79198;BME280;68628;48.714;9.472;2023-04-08T13:11:22;98506.75;;;11.33;46.88
79198;BME280;68628;48.714;9.472;2023-04-08T13:13:48;98510.00;;;11.04;48.75
79198;BME280;68628;48.714;9.472;2023-04-08T13:16:15;98513.94;;;11.08;47.98
79198;BME280;68628;48.714;9.472;2023-04-08T13:18:41;98512.44;;;11.13;48.78
79198;BME280;68628;48.714;9.472;2023-04-08T13:21:08;98505.38;;;11.06;48.06
79198;BME280;68628;48.714;9.472;2023-04-08T13:23:34;98501.22;;;10.72;50.89
79198;BME280;68628;48.714;9.472;2023-04-08T13:26:00;98508.72;;;10.99;49.40